createdAt,value
2018-08-03T00:00:07.057Z,1017.02
2018-08-03T00:01:07.097Z,1017.03
2018-08-03T00:02:07.034Z,1017.01
2018-08-03T00:03:07.025Z,1017.01
2018-08-03T00:04:07.021Z,1016.99
2018-08-03T00:05:07.009Z,1016.97
2018-08-03T00:06:07.000Z,1016.96
2018-08-03T00:07:06.981Z,1016.98
2018-08-03T00:08:06.976Z,1016.94
2018-08-03T00:09:06.962Z,1016.96
2018-08-03T00:10:06.953Z,1016.91
2018-08-03T00:11:06.946Z,1016.93
2018-08-03T00:12:06.934Z,1016.94
2018-08-03T00:13:06.924Z,1016.92
2018-08-03T00:14:06.904Z,1016.90
2018-08-03T00:15:06.897Z,1016.92
2018-08-03T00:16:06.894Z,1016.95
2018-08-03T00:17:06.875Z,1016.93
2018-08-03T00:18:06.862Z,1016.93
2018-08-03T00:19:06.853Z,1016.92
2018-08-03T00:20:06.841Z,1016.94
2018-08-03T00:21:06.846Z,1016.90
2018-08-03T00:22:06.822Z,1016.93
2018-08-03T00:23:06.809Z,1016.91
2018-08-03T00:24:06.807Z,1016.91
2018-08-03T00:25:06.844Z,1016.89
2018-08-03T00:26:06.774Z,1016.90
2018-08-03T00:27:06.766Z,1016.91
2018-08-03T00:28:06.803Z,1016.89
2018-08-03T00:29:06.745Z,1016.90
2018-08-03T00:30:06.733Z,1016.84
2018-08-03T00:31:06.732Z,1016.83
2018-08-03T00:32:06.710Z,1016.81
2018-08-03T00:33:06.710Z,1016.77
2018-08-03T00:34:06.691Z,1016.80
2018-08-03T00:35:06.681Z,1016.76
2018-08-03T00:36:06.669Z,1016.81
2018-08-03T00:37:06.655Z,1016.83
2018-08-03T00:38:06.650Z,1016.81
2018-08-03T00:39:06.635Z,1016.79
2018-08-03T00:40:06.624Z,1016.77
2018-08-03T00:41:06.722Z,1016.75
2018-08-03T00:42:06.605Z,1016.78
2018-08-03T00:43:06.594Z,1016.80
2018-08-03T00:44:06.621Z,1016.83
2018-08-03T00:45:06.571Z,1016.80
2018-08-03T00:46:06.565Z,1016.82
2018-08-03T00:47:06.548Z,1016.82
2018-08-03T00:48:06.537Z,1016.81
2018-08-03T00:49:06.525Z,1016.79
2018-08-03T00:50:06.511Z,1016.79
2018-08-03T00:51:06.503Z,1016.81
2018-08-03T00:52:06.490Z,1016.82
2018-08-03T00:53:06.481Z,1016.81
2018-08-03T00:54:06.487Z,1016.82
2018-08-03T00:55:06.458Z,1016.81
2018-08-03T00:56:06.446Z,1016.81
2018-08-03T00:57:06.539Z,1016.83
2018-08-03T00:58:06.425Z,1016.82
2018-08-03T00:59:06.412Z,1016.80
2018-08-03T01:00:06.417Z,1016.83
2018-08-03T01:01:06.392Z,1016.78
2018-08-03T01:02:06.382Z,1016.82
2018-08-03T01:03:06.372Z,1016.82
2018-08-03T01:04:06.360Z,1016.81
2018-08-03T01:05:06.347Z,1016.81
2018-08-03T01:06:06.334Z,1016.82
2018-08-03T01:07:06.335Z,1016.85
2018-08-03T01:08:06.312Z,1016.86
2018-08-03T01:09:06.306Z,1016.82
2018-08-03T01:10:06.297Z,1016.86
2018-08-03T01:11:06.284Z,1016.86
2018-08-03T01:12:06.269Z,1016.85
2018-08-03T01:13:06.261Z,1016.82
2018-08-03T01:14:06.245Z,1016.84
2018-08-03T01:15:06.235Z,1016.83
2018-08-03T01:16:06.225Z,1016.84
2018-08-03T01:17:06.212Z,1016.79
2018-08-03T01:18:06.207Z,1016.81
2018-08-03T01:19:06.199Z,1016.83
2018-08-03T01:20:06.189Z,1016.80
2018-08-03T01:21:06.210Z,1016.81
2018-08-03T01:22:06.157Z,1016.79
2018-08-03T01:23:06.145Z,1016.77
2018-08-03T01:24:06.135Z,1016.80
2018-08-03T01:25:06.127Z,1016.76
2018-08-03T01:26:06.117Z,1016.78
2018-08-03T01:27:06.104Z,1016.79
2018-08-03T01:28:06.098Z,1016.79
2018-08-03T01:29:06.077Z,1016.77
2018-08-03T01:30:06.067Z,1016.77
2018-08-03T01:31:06.054Z,1016.78
2018-08-03T01:32:06.044Z,1016.78
2018-08-03T01:33:06.032Z,1016.79
2018-08-03T01:34:06.046Z,1016.79
2018-08-03T01:35:06.009Z,1016.79
2018-08-03T01:36:05.998Z,1016.74
2018-08-03T01:37:05.986Z,1016.76
2018-08-03T01:38:05.974Z,1016.79
2018-08-03T01:39:05.969Z,1016.76
2018-08-03T01:40:05.965Z,1016.73
2018-08-03T01:41:05.944Z,1016.77
2018-08-03T01:42:05.932Z,1016.77
2018-08-03T01:43:05.918Z,1016.75
2018-08-03T01:44:05.908Z,1016.73
2018-08-03T01:45:05.901Z,1016.73
2018-08-03T01:46:05.886Z,1016.75
2018-08-03T01:47:06.013Z,1016.73
2018-08-03T01:48:05.863Z,1016.72
2018-08-03T01:49:05.854Z,1016.73
2018-08-03T01:50:05.874Z,1016.68
2018-08-03T01:51:06.837Z,1016.71
2018-08-03T01:52:05.815Z,1016.66
2018-08-03T01:53:05.854Z,1016.69
2018-08-03T01:54:05.791Z,1016.65
2018-08-03T01:55:05.789Z,1016.67
2018-08-03T01:56:05.772Z,1016.62
2018-08-03T01:57:05.761Z,1016.61
2018-08-03T01:58:05.746Z,1016.64
2018-08-03T01:59:05.793Z,1016.63
2018-08-03T02:00:05.724Z,1016.65
2018-08-03T02:01:05.712Z,1016.65
2018-08-03T02:02:05.711Z,1016.63
2018-08-03T02:03:05.695Z,1016.63
2018-08-03T02:04:05.676Z,1016.61
2018-08-03T02:05:05.672Z,1016.64
2018-08-03T02:06:05.653Z,1016.63
2018-08-03T02:07:05.644Z,1016.64
2018-08-03T02:08:05.634Z,1016.63
2018-08-03T02:09:05.621Z,1016.61
2018-08-03T02:10:05.610Z,1016.61
2018-08-03T02:11:05.597Z,1016.60
2018-08-03T02:12:05.584Z,1016.63
2018-08-03T02:13:05.572Z,1016.59
2018-08-03T02:14:05.659Z,1016.63
2018-08-03T02:15:05.956Z,1016.61
2018-08-03T02:16:05.539Z,1016.64
2018-08-03T02:18:32.799Z,1016.62
2018-08-03T02:19:29.958Z,1016.61
2018-08-03T02:24:50.118Z,1016.57
2018-08-03T02:25:50.104Z,1016.60
2018-08-03T02:26:50.092Z,1016.61
2018-08-03T02:27:50.080Z,1016.62
2018-08-03T02:28:50.127Z,1016.62
2018-08-03T02:29:50.058Z,1016.63
2018-08-03T02:30:50.043Z,1016.64
2018-08-03T02:31:50.043Z,1016.65
2018-08-03T02:32:50.021Z,1016.65
2018-08-03T02:33:50.011Z,1016.64
2018-08-03T02:34:50.004Z,1016.64
2018-08-03T02:35:49.990Z,1016.65
2018-08-03T02:36:49.971Z,1016.63
2018-08-03T02:37:49.957Z,1016.66
2018-08-03T02:38:49.947Z,1016.69
2018-08-03T02:39:49.937Z,1016.68
2018-08-03T02:40:49.930Z,1016.67
2018-08-03T02:41:49.915Z,1016.66
2018-08-03T02:42:49.902Z,1016.69
2018-08-03T02:43:49.886Z,1016.66
2018-08-03T02:44:50.030Z,1016.70
2018-08-03T02:45:49.868Z,1016.68
2018-08-03T02:46:49.850Z,1016.70
2018-08-03T02:47:49.871Z,1016.71
2018-08-03T02:48:49.830Z,1016.70
2018-08-03T02:49:49.816Z,1016.72
2018-08-03T02:50:49.803Z,1016.70
2018-08-03T02:51:49.795Z,1016.73
2018-08-03T02:52:49.778Z,1016.72
2018-08-03T02:53:49.770Z,1016.73
2018-08-03T02:54:49.756Z,1016.71
2018-08-03T02:55:49.752Z,1016.70
2018-08-03T02:56:49.732Z,1016.72
2018-08-03T02:57:49.730Z,1016.72
2018-08-03T02:58:49.708Z,1016.71
2018-08-03T02:59:49.697Z,1016.74
2018-08-03T03:00:49.801Z,1016.69
2018-08-03T03:01:49.673Z,1016.71
2018-08-03T03:02:49.664Z,1016.70
2018-08-03T03:03:49.707Z,1016.69
2018-08-03T03:04:49.646Z,1016.69
2018-08-03T03:05:49.626Z,1016.67
2018-08-03T03:06:49.670Z,1016.70
2018-08-03T03:07:49.600Z,1016.71
2018-08-03T03:08:49.595Z,1016.71
2018-08-03T03:09:49.578Z,1016.72
2018-08-03T03:10:49.566Z,1016.73
2018-08-03T03:11:49.560Z,1016.74
2018-08-03T03:12:49.544Z,1016.75
2018-08-03T03:13:49.529Z,1016.75
2018-08-03T03:14:49.526Z,1016.77
2018-08-03T03:15:49.513Z,1016.79
2018-08-03T03:16:49.497Z,1016.76
2018-08-03T03:17:49.488Z,1016.79
2018-08-03T03:18:49.474Z,1016.81
2018-08-03T03:19:49.539Z,1016.81
2018-08-03T03:20:49.452Z,1016.77
2018-08-03T03:21:49.434Z,1016.80
2018-08-03T03:22:49.421Z,1016.78
2018-08-03T03:23:49.412Z,1016.79
2018-08-03T03:24:49.565Z,1016.79
2018-08-03T03:25:49.402Z,1016.80
2018-08-03T03:26:49.374Z,1016.79
2018-08-03T03:27:49.414Z,1016.78
2018-08-03T03:28:49.361Z,1016.83
2018-08-03T03:29:49.341Z,1016.78
2018-08-03T03:30:49.326Z,1016.81
2018-08-03T03:31:49.320Z,1016.81
2018-08-03T03:32:49.304Z,1016.81
2018-08-03T03:33:49.293Z,1016.82
2018-08-03T03:34:49.280Z,1016.84
2018-08-03T03:35:49.276Z,1016.87
2018-08-03T03:36:49.255Z,1016.82
2018-08-03T03:37:49.242Z,1016.86
2018-08-03T03:38:49.233Z,1016.82
2018-08-03T03:39:49.222Z,1016.84
2018-08-03T03:40:49.323Z,1016.85
2018-08-03T03:41:49.201Z,1016.85
2018-08-03T03:42:49.187Z,1016.85
2018-08-03T03:43:49.273Z,1016.83
2018-08-03T03:44:49.160Z,1016.85
2018-08-03T03:45:49.148Z,1016.84
2018-08-03T03:46:49.134Z,1016.80
2018-08-03T03:47:49.125Z,1016.82
2018-08-03T03:48:49.110Z,1016.81
2018-08-03T03:49:49.100Z,1016.80
2018-08-03T03:50:49.089Z,1016.77
2018-08-03T03:51:49.080Z,1016.77
2018-08-03T03:52:49.064Z,1016.77
2018-08-03T03:53:49.053Z,1016.78
2018-08-03T03:54:49.038Z,1016.81
2018-08-03T03:55:49.034Z,1016.75
2018-08-03T03:56:49.013Z,1016.79
2018-08-03T03:57:49.002Z,1016.78
2018-08-03T03:58:48.989Z,1016.77
2018-08-03T03:59:48.983Z,1016.78
2018-08-03T04:00:48.972Z,1016.76
2018-08-03T04:01:48.953Z,1016.79
2018-08-03T04:02:48.940Z,1016.80
2018-08-03T04:03:48.951Z,1016.74
2018-08-03T04:04:48.918Z,1016.76
2018-08-03T04:05:48.908Z,1016.79
2018-08-03T04:06:48.891Z,1016.75
2018-08-03T04:07:48.880Z,1016.76
2018-08-03T04:08:48.870Z,1016.75
2018-08-03T04:09:48.855Z,1016.78
2018-08-03T04:10:48.850Z,1016.80
2018-08-03T04:11:48.832Z,1016.79
2018-08-03T04:12:48.819Z,1016.78
2018-08-03T04:13:48.806Z,1016.77
2018-08-03T04:14:48.801Z,1016.80
2018-08-03T04:15:48.781Z,1016.81
2018-08-03T04:16:48.769Z,1016.77
2018-08-03T04:17:48.757Z,1016.81
2018-08-03T04:18:48.747Z,1016.79
2018-08-03T04:19:48.734Z,1016.79
2018-08-03T04:20:48.726Z,1016.79
2018-08-03T04:21:48.710Z,1016.75
2018-08-03T04:22:48.698Z,1016.77
2018-08-03T04:23:48.685Z,1016.75
2018-08-03T04:24:48.674Z,1016.73
2018-08-03T04:25:48.664Z,1016.72
2018-08-03T04:26:48.648Z,1016.72
2018-08-03T04:27:48.637Z,1016.72
2018-08-03T04:28:48.624Z,1016.72
2018-08-03T04:29:48.614Z,1016.73
2018-08-03T04:30:48.614Z,1016.70
2018-08-03T04:31:48.587Z,1016.70
2018-08-03T04:32:48.580Z,1016.72
2018-08-03T04:33:48.562Z,1016.73
2018-08-03T04:34:48.554Z,1016.73
2018-08-03T04:35:48.539Z,1016.72
2018-08-03T04:36:48.527Z,1016.71
2018-08-03T04:37:48.525Z,1016.74
2018-08-03T04:38:48.532Z,1016.74
2018-08-03T04:39:48.530Z,1016.73
2018-08-03T04:40:48.477Z,1016.78
2018-08-03T04:41:48.465Z,1016.77
2018-08-03T04:42:48.455Z,1016.78
2018-08-03T04:43:48.443Z,1016.80
2018-08-03T04:44:48.433Z,1016.81
2018-08-03T04:45:48.422Z,1016.82
2018-08-03T04:46:48.405Z,1016.80
2018-08-03T04:47:48.399Z,1016.82
2018-08-03T04:48:48.386Z,1016.84
2018-08-03T04:49:48.372Z,1016.83
2018-08-03T04:50:48.356Z,1016.81
2018-08-03T04:51:48.343Z,1016.83
2018-08-03T04:52:48.336Z,1016.82
2018-08-03T04:53:48.319Z,1016.85
2018-08-03T04:54:48.325Z,1016.87
2018-08-03T04:55:48.297Z,1016.86
2018-08-03T04:56:48.284Z,1016.83
2018-08-03T04:57:48.282Z,1016.82
2018-08-03T04:58:48.314Z,1016.85
2018-08-03T04:59:48.247Z,1016.88
2018-08-03T05:00:48.236Z,1016.88
2018-08-03T05:01:48.223Z,1016.88
2018-08-03T05:02:48.214Z,1016.86
2018-08-03T05:03:48.201Z,1016.87
2018-08-03T05:04:48.268Z,1016.87
2018-08-03T05:05:48.175Z,1016.92
2018-08-03T05:06:48.171Z,1016.91
2018-08-03T05:07:48.157Z,1016.94
2018-08-03T05:08:48.139Z,1016.98
2018-08-03T05:09:48.132Z,1016.98
2018-08-03T05:10:48.123Z,1016.99
2018-08-03T05:11:48.106Z,1017.01
2018-08-03T05:12:48.091Z,1017.01
2018-08-03T05:13:48.088Z,1017.03
2018-08-03T05:14:48.068Z,1017.01
2018-08-03T05:15:48.055Z,1017.03
2018-08-03T05:16:48.048Z,1017.01
2018-08-03T05:17:48.032Z,1016.96
2018-08-03T05:18:48.024Z,1016.99
2018-08-03T05:19:48.008Z,1016.97
2018-08-03T05:20:47.997Z,1016.97
2018-08-03T05:21:47.987Z,1016.98
2018-08-03T05:22:47.972Z,1016.98
2018-08-03T05:23:47.962Z,1016.98
2018-08-03T05:24:47.956Z,1017.00
2018-08-03T05:25:47.937Z,1017.01
2018-08-03T05:26:47.923Z,1016.99
2018-08-03T05:27:47.913Z,1017.01
2018-08-03T05:28:47.909Z,1017.01
2018-08-03T05:29:47.902Z,1017.03
2018-08-03T05:30:47.883Z,1016.98
2018-08-03T05:31:47.866Z,1017.00
2018-08-03T05:32:47.854Z,1016.99
2018-08-03T05:33:47.843Z,1016.97
2018-08-03T05:34:47.831Z,1017.01
2018-08-03T05:35:47.891Z,1016.97
2018-08-03T05:36:47.810Z,1017.04
2018-08-03T05:37:47.794Z,1017.19
2018-08-03T05:38:47.782Z,1017.48
2018-08-03T05:39:47.772Z,1017.53
2018-08-03T05:40:47.761Z,1017.53
2018-08-03T05:41:47.749Z,1017.60
2018-08-03T05:42:47.745Z,1017.61
2018-08-03T05:43:47.726Z,1017.59
2018-08-03T05:44:47.714Z,1017.59
2018-08-03T05:45:47.705Z,1017.58
2018-08-03T05:46:47.696Z,1017.61
2018-08-03T05:47:47.683Z,1017.67
2018-08-03T05:48:47.675Z,1017.71
2018-08-03T05:49:47.665Z,1017.68
2018-08-03T05:50:47.652Z,1017.70
2018-08-03T05:51:47.644Z,1017.76
2018-08-03T05:52:47.646Z,1017.73
2018-08-03T05:53:47.626Z,1017.75
2018-08-03T05:54:47.623Z,1017.77
2018-08-03T05:55:47.608Z,1017.83
2018-08-03T05:56:47.727Z,1017.81
2018-08-03T05:57:47.594Z,1017.85
2018-08-03T05:58:47.585Z,1017.85
2018-08-03T05:59:47.629Z,1017.89
2018-08-03T06:00:47.577Z,1017.92
2018-08-03T06:01:47.562Z,1017.90
2018-08-03T06:02:47.556Z,1017.95
2018-08-03T06:03:47.548Z,1017.90
2018-08-03T06:04:47.547Z,1017.94
2018-08-03T06:05:47.537Z,1017.96
2018-08-03T06:06:47.531Z,1018.01
2018-08-03T06:07:47.533Z,1018.06
2018-08-03T06:08:47.524Z,1018.12
2018-08-03T06:09:47.514Z,1018.18
2018-08-03T06:10:47.511Z,1018.22
2018-08-03T06:11:47.509Z,1018.35
2018-08-03T06:12:47.499Z,1018.59
2018-08-03T06:13:47.493Z,1018.65
2018-08-03T06:14:47.911Z,1018.71
2018-08-03T06:15:47.487Z,1018.73
2018-08-03T06:17:36.124Z,1018.43
2018-08-03T06:18:36.120Z,1018.22
2018-08-03T06:19:36.112Z,1018.06
2018-08-03T06:20:36.142Z,1017.89
2018-08-03T06:21:36.103Z,1017.84
2018-08-03T06:22:36.102Z,1017.81
2018-08-03T06:23:36.095Z,1017.82
2018-08-03T06:24:36.144Z,1017.87
2018-08-03T06:25:36.092Z,1017.85
2018-08-03T06:26:36.087Z,1017.83
2018-08-03T06:27:36.085Z,1017.86
2018-08-03T06:28:36.174Z,1017.82
2018-08-03T06:29:36.088Z,1017.80
2018-08-03T06:30:36.085Z,1017.78
2018-08-03T06:31:36.076Z,1017.64
2018-08-03T06:32:36.067Z,1017.73
2018-08-03T06:33:36.065Z,1017.62
2018-08-03T06:34:36.075Z,1017.60
2018-08-03T06:35:36.062Z,1017.68
2018-08-03T06:36:36.066Z,1017.70
2018-08-03T06:37:36.147Z,1017.77
2018-08-03T06:38:36.063Z,1017.74
2018-08-03T06:39:36.056Z,1017.71
2018-08-03T06:40:36.050Z,1017.73
2018-08-03T06:41:36.049Z,1017.72
2018-08-03T06:42:36.050Z,1017.71
2018-08-03T06:44:25.700Z,1017.67
2018-08-03T06:45:25.690Z,1017.70
2018-08-03T06:47:14.778Z,1017.46
2018-08-03T06:48:14.834Z,1017.39
2018-08-03T06:49:14.783Z,1017.42
2018-08-03T06:50:14.774Z,1017.42
2018-08-03T06:51:14.773Z,1017.48
2018-08-03T06:52:14.771Z,1017.44
2018-08-03T06:53:14.806Z,1017.39
2018-08-03T06:54:14.779Z,1017.38
2018-08-03T06:55:14.769Z,1017.40
2018-08-03T06:56:14.771Z,1017.39
2018-08-03T06:57:17.388Z,1017.42
2018-08-03T06:58:14.763Z,1017.38
2018-08-03T06:59:14.770Z,1017.39
2018-08-03T07:00:14.757Z,1017.48
2018-08-03T07:01:47.981Z,1017.44
2018-08-03T07:02:14.758Z,1017.50
2018-08-03T07:03:14.754Z,1017.56
2018-08-03T07:04:14.747Z,1017.46
2018-08-03T07:05:14.816Z,1017.46
2018-08-03T07:06:14.742Z,1017.40
2018-08-03T07:07:14.741Z,1017.39
2018-08-03T07:08:14.737Z,1017.36
2018-08-03T07:09:14.731Z,1017.38
2018-08-03T07:10:14.731Z,1017.37
2018-08-03T07:11:14.725Z,1017.40
2018-08-03T07:12:14.735Z,1017.40
2018-08-03T07:13:14.720Z,1017.37
2018-08-03T07:14:14.718Z,1017.42
2018-08-03T07:15:14.712Z,1017.45
2018-08-03T07:16:14.707Z,1017.49
2018-08-03T07:17:14.704Z,1017.55
2018-08-03T07:18:14.829Z,1017.51
2018-08-03T07:19:14.697Z,1017.50
2018-08-03T07:20:14.823Z,1017.52
2018-08-03T07:21:14.690Z,1017.40
2018-08-03T07:22:14.693Z,1017.33
2018-08-03T07:23:14.682Z,1017.33
2018-08-03T07:24:14.682Z,1017.41
2018-08-03T07:25:14.675Z,1017.52
2018-08-03T07:26:14.671Z,1017.50
2018-08-03T07:27:14.675Z,1017.49
2018-08-03T07:28:14.666Z,1017.44
2018-08-03T07:29:14.710Z,1017.36
2018-08-03T07:30:14.660Z,1017.33
2018-08-03T07:31:14.653Z,1017.35
2018-08-03T07:32:14.648Z,1017.30
2018-08-03T07:33:14.655Z,1017.32
2018-08-03T07:34:14.650Z,1017.33
2018-08-03T07:35:14.646Z,1017.35
2018-08-03T07:36:14.637Z,1017.34
2018-08-03T07:37:14.634Z,1017.33
2018-08-03T07:38:14.632Z,1017.31
2018-08-03T07:39:14.739Z,1017.36
2018-08-03T07:40:14.618Z,1017.33
2018-08-03T07:41:14.617Z,1017.30
2018-08-03T07:42:14.612Z,1017.31
2018-08-03T07:43:14.720Z,1017.27
2018-08-03T07:44:14.608Z,1017.24
2018-08-03T07:45:14.615Z,1017.21
2018-08-03T07:46:14.595Z,1017.23
2018-08-03T07:47:14.595Z,1017.22
2018-08-03T07:48:14.593Z,1017.29
2018-08-03T07:49:14.587Z,1017.43
2018-08-03T07:50:14.578Z,1017.36
2018-08-03T07:51:14.576Z,1017.32
2018-08-03T07:52:14.567Z,1017.26
2018-08-03T07:53:14.562Z,1017.24
2018-08-03T07:54:14.566Z,1017.19
2018-08-03T07:55:14.559Z,1017.19
2018-08-03T07:56:14.556Z,1017.21
2018-08-03T07:57:14.545Z,1017.25
2018-08-03T07:58:14.541Z,1017.31
2018-08-03T07:59:14.547Z,1017.39
2018-08-03T08:00:14.537Z,1017.31
2018-08-03T08:01:14.525Z,1017.30
2018-08-03T08:02:14.522Z,1017.23
2018-08-03T08:03:14.532Z,1017.20
2018-08-03T08:04:14.509Z,1017.18
2018-08-03T08:05:14.511Z,1017.12
2018-08-03T08:06:14.533Z,1017.13
2018-08-03T08:07:14.534Z,1017.15
2018-08-03T08:08:14.494Z,1017.16
2018-08-03T08:09:14.490Z,1017.16
2018-08-03T08:10:14.480Z,1017.13
2018-08-03T08:11:14.474Z,1017.15
2018-08-03T08:12:14.473Z,1017.10
2018-08-03T08:13:14.465Z,1017.11
2018-08-03T08:14:14.461Z,1017.08
2018-08-03T08:15:14.551Z,1017.14
2018-08-03T08:16:14.448Z,1017.10
2018-08-03T08:17:14.443Z,1017.13
2018-08-03T08:18:14.448Z,1017.11
2018-08-03T08:19:14.432Z,1017.08
2018-08-03T08:20:14.438Z,1017.08
2018-08-03T08:21:17.053Z,1017.07
2018-08-03T08:22:14.424Z,1017.09
2018-08-03T08:23:14.413Z,1017.05
2018-08-03T08:24:14.409Z,1017.05
2018-08-03T08:25:14.470Z,1017.04
2018-08-03T08:26:14.495Z,1017.04
2018-08-03T08:27:14.388Z,1017.03
2018-08-03T08:28:14.393Z,1017.03
2018-08-03T08:29:14.382Z,1017.02
2018-08-03T08:30:14.373Z,1017.00
2018-08-03T08:31:14.367Z,1017.00
2018-08-03T08:32:14.371Z,1016.99
2018-08-03T08:33:14.359Z,1017.00
2018-08-03T08:34:14.351Z,1017.01
2018-08-03T08:35:14.356Z,1017.00
2018-08-03T08:36:14.337Z,1016.94
2018-08-03T08:37:14.372Z,1016.93
2018-08-03T08:38:14.439Z,1016.94
2018-08-03T08:39:14.329Z,1017.05
2018-08-03T08:40:14.313Z,1017.00
2018-08-03T08:41:14.310Z,1016.95
2018-08-03T08:42:14.307Z,1016.93
2018-08-03T08:43:14.298Z,1016.89
2018-08-03T08:44:14.426Z,1016.90
2018-08-03T08:45:14.297Z,1016.96
2018-08-03T08:46:14.276Z,1016.97
2018-08-03T08:47:14.269Z,1016.91
2018-08-03T08:48:14.280Z,1016.96
2018-08-03T08:49:14.391Z,1016.94
2018-08-03T08:50:14.250Z,1016.91
2018-08-03T08:51:14.253Z,1016.90
2018-08-03T08:52:14.247Z,1016.85
2018-08-03T08:53:14.245Z,1016.87
2018-08-03T08:54:14.229Z,1016.83
2018-08-03T08:55:14.221Z,1016.84
2018-08-03T08:56:14.217Z,1016.84
2018-08-03T08:57:14.217Z,1016.82
2018-08-03T08:58:14.204Z,1016.84
2018-08-03T08:59:14.196Z,1016.83
2018-08-03T09:00:14.199Z,1016.85
2018-08-03T09:01:14.239Z,1016.81
2018-08-03T09:02:14.230Z,1016.88
2018-08-03T09:03:14.172Z,1016.83
2018-08-03T09:04:14.173Z,1016.85
2018-08-03T09:05:14.213Z,1016.85
2018-08-03T09:06:14.156Z,1016.80
2018-08-03T09:07:14.148Z,1016.87
2018-08-03T09:08:14.144Z,1016.84
2018-08-03T09:09:14.139Z,1016.88
2018-08-03T09:10:14.129Z,1017.02
2018-08-03T09:11:14.131Z,1016.93
2018-08-03T09:12:14.119Z,1017.01
2018-08-03T09:13:14.178Z,1016.95
2018-08-03T09:14:14.112Z,1016.79
2018-08-03T09:15:14.254Z,1016.73
2018-08-03T09:16:14.109Z,1016.79
2018-08-03T09:17:14.091Z,1016.80
2018-08-03T09:18:14.087Z,1016.83
2018-08-03T09:19:14.084Z,1016.81
2018-08-03T09:20:14.075Z,1016.74
2018-08-03T09:21:14.073Z,1016.82
2018-08-03T09:22:14.116Z,1016.87
2018-08-03T09:23:14.064Z,1016.72
2018-08-03T09:24:14.062Z,1016.79
2018-08-03T09:25:14.056Z,1016.96
2018-08-03T09:26:14.052Z,1017.00
2018-08-03T09:27:14.058Z,1016.77
2018-08-03T09:28:14.083Z,1016.78
2018-08-03T09:29:14.050Z,1016.86
2018-08-03T09:30:14.037Z,1016.72
2018-08-03T09:31:14.033Z,1016.90
2018-08-03T09:32:14.029Z,1016.71
2018-08-03T09:33:14.035Z,1016.68
2018-08-03T09:34:14.034Z,1016.73
2018-08-03T09:35:14.018Z,1016.75
2018-08-03T09:36:14.114Z,1016.63
2018-08-03T09:37:14.015Z,1016.64
2018-08-03T09:38:14.010Z,1016.69
2018-08-03T09:39:14.007Z,1016.84
2018-08-03T09:40:14.003Z,1016.63
2018-08-03T09:41:14.006Z,1016.63
2018-08-03T09:42:13.997Z,1016.54
2018-08-03T09:43:13.993Z,1016.55
2018-08-03T09:44:13.992Z,1016.55
2018-08-03T09:45:13.992Z,1016.55
2018-08-03T09:46:14.005Z,1016.61
2018-08-03T09:47:13.983Z,1016.54
2018-08-03T09:48:13.988Z,1016.55
2018-08-03T09:49:14.048Z,1016.62
2018-08-03T09:50:13.979Z,1016.60
2018-08-03T09:51:13.976Z,1016.86
2018-08-03T09:52:13.969Z,1016.79
2018-08-03T09:53:13.964Z,1016.81
2018-08-03T09:54:13.969Z,1016.66
2018-08-03T09:55:14.000Z,1016.76
2018-08-03T09:56:14.771Z,1016.74
2018-08-03T09:57:17.794Z,1016.76
2018-08-03T09:58:13.959Z,1016.73
2018-08-03T09:59:14.052Z,1016.74
2018-08-03T10:00:13.963Z,1016.70
2018-08-03T10:01:13.973Z,1016.68
2018-08-03T10:02:14.018Z,1016.67
2018-08-03T10:03:13.958Z,1016.63
2018-08-03T10:04:13.966Z,1016.63
2018-08-03T10:05:13.958Z,1016.60
2018-08-03T10:06:13.967Z,1016.60
2018-08-03T10:07:13.980Z,1016.55
2018-08-03T10:08:13.971Z,1016.57
2018-08-03T10:09:13.969Z,1016.55
2018-08-03T10:10:13.972Z,1016.57
2018-08-03T10:11:13.971Z,1016.54
2018-08-03T10:12:14.090Z,1016.51
2018-08-03T10:13:13.981Z,1016.51
2018-08-03T10:14:13.990Z,1016.50
2018-08-03T10:15:13.991Z,1016.50
2018-08-03T10:16:13.992Z,1016.48
2018-08-03T10:17:14.000Z,1016.40
2018-08-03T10:18:14.011Z,1016.38
2018-08-03T10:19:14.009Z,1016.37
2018-08-03T10:20:14.021Z,1016.35
2018-08-03T10:21:14.021Z,1016.36
2018-08-03T10:22:14.044Z,1016.30
2018-08-03T10:23:14.035Z,1016.31
2018-08-03T10:24:14.039Z,1016.30
2018-08-03T10:25:14.047Z,1016.26
2018-08-03T10:26:14.053Z,1016.26
2018-08-03T10:27:14.058Z,1016.22
2018-08-03T10:28:14.077Z,1016.19
2018-08-03T10:29:14.076Z,1016.21
2018-08-03T10:30:14.085Z,1016.18
2018-08-03T10:31:14.104Z,1016.15
2018-08-03T10:32:14.100Z,1016.19
2018-08-03T10:33:14.106Z,1016.17
2018-08-03T10:34:14.123Z,1016.14
2018-08-03T10:35:14.123Z,1016.11
2018-08-03T10:36:14.134Z,1016.06
2018-08-03T10:37:14.138Z,1016.09
2018-08-03T10:38:14.149Z,1016.06
2018-08-03T10:39:14.164Z,1016.05
2018-08-03T10:40:14.164Z,1016.00
2018-08-03T10:41:14.170Z,1015.95
2018-08-03T10:42:14.179Z,1015.91
2018-08-03T10:43:14.207Z,1015.88
2018-08-03T10:44:14.198Z,1015.88
2018-08-03T10:45:14.208Z,1015.85
2018-08-03T10:46:14.214Z,1015.82
2018-08-03T10:47:14.248Z,1015.82
2018-08-03T10:48:14.230Z,1015.76
2018-08-03T10:49:14.245Z,1015.76
2018-08-03T10:50:14.257Z,1015.75
2018-08-03T10:51:14.260Z,1015.74
2018-08-03T10:52:14.267Z,1015.66
2018-08-03T10:53:14.281Z,1015.65
2018-08-03T10:54:14.288Z,1015.65
2018-08-03T10:55:14.300Z,1015.57
2018-08-03T10:56:14.314Z,1015.50
2018-08-03T10:57:14.317Z,1015.47
2018-08-03T10:58:14.370Z,1015.46
2018-08-03T10:59:14.332Z,1015.40
2018-08-03T11:00:14.355Z,1015.42
2018-08-03T11:01:14.361Z,1015.42
2018-08-03T11:02:14.363Z,1015.47
2018-08-03T11:03:14.374Z,1015.43
2018-08-03T11:04:14.376Z,1015.34
2018-08-03T11:05:14.390Z,1015.34
2018-08-03T11:06:14.394Z,1015.33
2018-08-03T11:07:14.429Z,1015.40
2018-08-03T11:08:14.409Z,1015.39
2018-08-03T11:09:14.425Z,1015.39
2018-08-03T11:10:14.437Z,1015.42
2018-08-03T11:11:14.436Z,1015.44
2018-08-03T11:12:14.443Z,1015.37
2018-08-03T11:13:14.460Z,1015.37
2018-08-03T11:14:14.470Z,1015.36
2018-08-03T11:15:14.469Z,1015.42
2018-08-03T11:16:14.478Z,1015.46
2018-08-03T11:17:14.485Z,1015.48
2018-08-03T11:18:14.494Z,1015.46
2018-08-03T11:19:14.504Z,1015.43
2018-08-03T11:20:14.513Z,1015.49
2018-08-03T11:21:14.546Z,1015.55
2018-08-03T11:22:14.528Z,1015.67
2018-08-03T11:23:14.536Z,1015.67
2018-08-03T11:24:14.626Z,1015.64
2018-08-03T11:25:14.554Z,1015.64
2018-08-03T11:26:14.564Z,1015.70
2018-08-03T11:27:14.581Z,1015.72
2018-08-03T11:28:14.579Z,1015.73
2018-08-03T11:29:14.588Z,1015.81
2018-08-03T11:30:14.599Z,1015.77
2018-08-03T11:31:14.604Z,1015.79
2018-08-03T11:32:14.618Z,1015.78
2018-08-03T11:33:14.621Z,1015.77
2018-08-03T11:34:14.621Z,1015.78
2018-08-03T11:35:14.670Z,1015.70
2018-08-03T11:36:14.649Z,1015.77
2018-08-03T11:37:14.639Z,1015.76
2018-08-03T11:38:14.657Z,1015.75
2018-08-03T11:39:14.664Z,1015.69
2018-08-03T11:40:14.651Z,1015.75
2018-08-03T11:41:14.715Z,1015.70
2018-08-03T11:42:14.668Z,1016.20
2018-08-03T11:43:14.665Z,1016.24
2018-08-03T11:44:14.686Z,1016.16
2018-08-03T11:45:14.676Z,1015.62
2018-08-03T11:46:14.676Z,1015.63
2018-08-03T11:47:14.680Z,1015.59
2018-08-03T11:48:14.680Z,1015.60
2018-08-03T11:49:14.677Z,1015.58
2018-08-03T11:50:14.681Z,1015.68
2018-08-03T11:51:14.682Z,1016.25
2018-08-03T11:52:14.687Z,1015.96
2018-08-03T11:53:14.687Z,1015.62
2018-08-03T11:54:14.710Z,1015.66
2018-08-03T11:55:14.689Z,1015.62
2018-08-03T11:56:14.710Z,1015.57
2018-08-03T11:57:14.693Z,1015.53
2018-08-03T11:58:14.694Z,1015.44
2018-08-03T11:59:14.697Z,1015.48
2018-08-03T12:00:14.710Z,1015.48
2018-08-03T12:01:14.710Z,1015.47
2018-08-03T12:02:14.702Z,1015.46
2018-08-03T12:03:14.702Z,1015.48
2018-08-03T12:04:14.713Z,1015.46
2018-08-03T12:05:14.703Z,1015.40
2018-08-03T12:06:14.716Z,1015.36
2018-08-03T12:07:14.712Z,1015.43
2018-08-03T12:08:14.707Z,1015.40
2018-08-03T12:09:14.704Z,1015.37
2018-08-03T12:10:14.709Z,1015.40
2018-08-03T12:11:14.704Z,1015.35
2018-08-03T12:12:15.322Z,1015.35
2018-08-03T12:13:14.704Z,1015.35